sensor_id;sensor_type;location;lat;lon;timestamp;P1;durP1;ratioP1;P2;durP2;ratioP2
11006;SDS011;8186;57.652;11.968;2023-04-03T00:01:46;1.60;;;1.23;;
11006;SDS011;8186;57.652;11.968;2023-04-03T00:04:13;2.80;;;1.17;;
11006;SDS011;8186;57.652;11.968;2023-04-03T00:06:41;2.10;;;1.07;;
11006;SDS011;8186;57.652;11.968;2023-04-03T00:09:09;1.83;;;1.20;;
11006;SDS011;8186;57.652;11.968;2023-04-03T00:11:36;1.90;;;1.10;;
11006;SDS011;8186;57.652;11.968;2023-04-03T00:14:03;2.60;;;1.10;;
11006;SDS011;8186;57.652;11.968;2023-04-03T00:16:30;5.33;;;1.33;;
11006;SDS011;8186;57.652;11.968;2023-04-03T00:18:57;4.90;;;1.50;;
11006;SDS011;8186;57.652;11.968;2023-04-03T00:21:24;2.23;;;1.50;;
11006;SDS011;8186;57.652;11.968;2023-04-03T00:23:51;3.80;;;1.43;;
11006;SDS011;8186;57.652;11.968;2023-04-03T00:26:19;2.93;;;1.13;;
11006;SDS011;8186;57.652;11.968;2023-04-03T00:28:47;3.43;;;1.27;;
11006;SDS011;8186;57.652;11.968;2023-04-03T00:31:14;4.73;;;1.40;;
11006;SDS011;8186;57.652;11.968;2023-04-03T00:33:42;1.87;;;1.17;;
11006;SDS011;8186;57.652;11.968;2023-04-03T00:36:09;2.60;;;1.00;;
11006;SDS011;8186;57.652;11.968;2023-04-03T00:38:37;3.10;;;1.30;;
11006;SDS011;8186;57.652;11.968;2023-04-03T00:41:04;1.67;;;1.07;;
11006;SDS011;8186;57.652;11.968;2023-04-03T00:43:33;3.43;;;1.03;;
11006;SDS011;8186;57.652;11.968;2023-04-03T00:46:00;3.80;;;1.07;;
11006;SDS011;8186;57.652;11.968;2023-04-03T00:48:28;4.60;;;1.03;;
11006;SDS011;8186;57.652;11.968;2023-04-03T00:50:56;2.43;;;0.90;;
11006;SDS011;8186;57.652;11.968;2023-04-03T00:53:25;1.40;;;0.97;;
11006;SDS011;8186;57.652;11.968;2023-04-03T00:55:53;2.93;;;1.00;;
11006;SDS011;8186;57.652;11.968;2023-04-03T00:58:22;1.80;;;0.97;;
11006;SDS011;8186;57.652;11.968;2023-04-03T01:00:55;1.90;;;1.00;;
11006;SDS011;8186;57.652;11.968;2023-04-03T01:03:24;2.10;;;0.93;;
11006;SDS011;8186;57.652;11.968;2023-04-03T01:05:51;2.07;;;0.90;;
11006;SDS011;8186;57.652;11.968;2023-04-03T01:08:18;2.27;;;1.10;;
11006;SDS011;8186;57.652;11.968;2023-04-03T01:10:45;2.67;;;0.90;;
11006;SDS011;8186;57.652;11.968;2023-04-03T01:13:23;2.50;;;0.93;;
11006;SDS011;8186;57.652;11.968;2023-04-03T01:15:51;1.10;;;0.80;;
11006;SDS011;8186;57.652;11.968;2023-04-03T01:18:19;3.33;;;1.03;;
11006;SDS011;8186;57.652;11.968;2023-04-03T01:20:57;1.20;;;0.60;;
11006;SDS011;8186;57.652;11.968;2023-04-03T01:23:39;2.37;;;1.43;;
11006;SDS011;8186;57.652;11.968;2023-04-03T01:26:14;1.03;;;0.70;;
11006;SDS011;8186;57.652;11.968;2023-04-03T01:28:41;1.13;;;0.90;;
11006;SDS011;8186;57.652;11.968;2023-04-03T01:31:10;2.73;;;0.80;;
11006;SDS011;8186;57.652;11.968;2023-04-03T01:33:44;1.93;;;1.00;;
11006;SDS011;8186;57.652;11.968;2023-04-03T01:36:13;2.07;;;1.10;;
11006;SDS011;8186;57.652;11.968;2023-04-03T01:38:43;3.30;;;0.80;;
11006;SDS011;8186;57.652;11.968;2023-04-03T01:41:10;1.47;;;1.00;;
11006;SDS011;8186;57.652;11.968;2023-04-03T01:43:37;2.33;;;0.87;;
11006;SDS011;8186;57.652;11.968;2023-04-03T01:46:04;1.10;;;0.70;;
11006;SDS011;8186;57.652;11.968;2023-04-03T01:48:32;1.07;;;0.80;;
11006;SDS011;8186;57.652;11.968;2023-04-03T01:51:00;1.77;;;1.03;;
11006;SDS011;8186;57.652;11.968;2023-04-03T01:53:27;6.57;;;0.73;;
11006;SDS011;8186;57.652;11.968;2023-04-03T01:55:54;2.87;;;1.07;;
11006;SDS011;8186;57.652;11.968;2023-04-03T01:58:21;3.77;;;0.90;;
11006;SDS011;8186;57.652;11.968;2023-04-03T02:00:48;0.80;;;0.80;;
11006;SDS011;8186;57.652;11.968;2023-04-03T02:03:15;1.07;;;0.80;;
11006;SDS011;8186;57.652;11.968;2023-04-03T02:05:43;1.00;;;0.80;;
11006;SDS011;8186;57.652;11.968;2023-04-03T02:08:11;4.23;;;1.30;;
11006;SDS011;8186;57.652;11.968;2023-04-03T02:10:39;1.83;;;0.90;;
11006;SDS011;8186;57.652;11.968;2023-04-03T02:13:06;3.20;;;0.83;;
11006;SDS011;8186;57.652;11.968;2023-04-03T02:15:33;2.33;;;0.90;;
11006;SDS011;8186;57.652;11.968;2023-04-03T02:18:00;2.47;;;0.77;;
11006;SDS011;8186;57.652;11.968;2023-04-03T02:20:27;3.57;;;0.90;;
11006;SDS011;8186;57.652;11.968;2023-04-03T02:22:54;1.50;;;0.80;;
11006;SDS011;8186;57.652;11.968;2023-04-03T02:25:23;2.20;;;0.80;;
11006;SDS011;8186;57.652;11.968;2023-04-03T02:27:50;1.90;;;0.80;;
11006;SDS011;8186;57.652;11.968;2023-04-03T02:30:17;1.97;;;0.93;;
11006;SDS011;8186;57.652;11.968;2023-04-03T02:32:44;1.97;;;0.83;;
11006;SDS011;8186;57.652;11.968;2023-04-03T02:35:11;2.00;;;1.00;;
11006;SDS011;8186;57.652;11.968;2023-04-03T02:37:38;2.57;;;0.80;;
11006;SDS011;8186;57.652;11.968;2023-04-03T02:40:06;0.60;;;0.60;;
11006;SDS011;8186;57.652;11.968;2023-04-03T02:42:38;1.57;;;0.63;;
11006;SDS011;8186;57.652;11.968;2023-04-03T02:45:05;1.73;;;0.70;;
11006;SDS011;8186;57.652;11.968;2023-04-03T02:47:33;1.57;;;0.80;;
11006;SDS011;8186;57.652;11.968;2023-04-03T02:50:00;1.23;;;0.73;;
11006;SDS011;8186;57.652;11.968;2023-04-03T02:52:27;1.90;;;0.70;;
11006;SDS011;8186;57.652;11.968;2023-04-03T02:54:54;1.87;;;0.90;;
11006;SDS011;8186;57.652;11.968;2023-04-03T02:57:21;1.77;;;0.83;;
11006;SDS011;8186;57.652;11.968;2023-04-03T02:59:49;2.03;;;1.10;;
11006;SDS011;8186;57.652;11.968;2023-04-03T03:02:16;2.13;;;0.73;;
11006;SDS011;8186;57.652;11.968;2023-04-03T03:04:43;3.27;;;1.03;;
11006;SDS011;8186;57.652;11.968;2023-04-03T03:07:10;1.47;;;0.77;;
11006;SDS011;8186;57.652;11.968;2023-04-03T03:09:37;1.53;;;0.67;;
11006;SDS011;8186;57.652;11.968;2023-04-03T03:12:04;2.27;;;0.77;;
11006;SDS011;8186;57.652;11.968;2023-04-03T03:14:31;1.97;;;0.80;;
11006;SDS011;8186;57.652;11.968;2023-04-03T03:17:00;1.67;;;0.70;;
11006;SDS011;8186;57.652;11.968;2023-04-03T03:19:27;4.07;;;1.00;;
11006;SDS011;8186;57.652;11.968;2023-04-03T03:21:54;1.67;;;0.60;;
11006;SDS011;8186;57.652;11.968;2023-04-03T03:24:22;1.10;;;0.70;;
11006;SDS011;8186;57.652;11.968;2023-04-03T03:26:49;1.30;;;0.50;;
11006;SDS011;8186;57.652;11.968;2023-04-03T03:29:16;1.27;;;0.80;;
11006;SDS011;8186;57.652;11.968;2023-04-03T03:31:43;3.57;;;0.50;;
11006;SDS011;8186;57.652;11.968;2023-04-03T03:34:12;1.70;;;0.77;;
11006;SDS011;8186;57.652;11.968;2023-04-03T03:36:39;1.53;;;0.70;;
11006;SDS011;8186;57.652;11.968;2023-04-03T03:39:06;1.70;;;0.73;;
11006;SDS011;8186;57.652;11.968;2023-04-03T03:41:33;2.87;;;1.00;;
11006;SDS011;8186;57.652;11.968;2023-04-03T03:44:00;2.43;;;0.93;;
11006;SDS011;8186;57.652;11.968;2023-04-03T03:46:27;1.90;;;0.60;;
11006;SDS011;8186;57.652;11.968;2023-04-03T03:48:54;0.90;;;0.70;;
11006;SDS011;8186;57.652;11.968;2023-04-03T03:51:23;4.33;;;1.03;;
11006;SDS011;8186;57.652;11.968;2023-04-03T03:53:50;1.10;;;0.70;;
11006;SDS011;8186;57.652;11.968;2023-04-03T03:56:17;3.70;;;0.70;;
11006;SDS011;8186;57.652;11.968;2023-04-03T03:58:44;2.50;;;0.87;;
11006;SDS011;8186;57.652;11.968;2023-04-03T04:01:11;2.77;;;0.80;;
11006;SDS011;8186;57.652;11.968;2023-04-03T04:03:38;1.80;;;0.90;;
11006;SDS011;8186;57.652;11.968;2023-04-03T04:06:05;1.77;;;0.80;;
11006;SDS011;8186;57.652;11.968;2023-04-03T04:08:34;1.00;;;0.70;;
11006;SDS011;8186;57.652;11.968;2023-04-03T04:11:01;1.73;;;0.67;;
11006;SDS011;8186;57.652;11.968;2023-04-03T04:13:28;2.53;;;0.97;;
11006;SDS011;8186;57.652;11.968;2023-04-03T04:15:54;5.20;;;0.97;;
11006;SDS011;8186;57.652;11.968;2023-04-03T04:18:22;1.90;;;0.83;;
11006;SDS011;8186;57.652;11.968;2023-04-03T04:20:49;1.60;;;0.90;;
11006;SDS011;8186;57.652;11.968;2023-04-03T04:23:16;1.07;;;0.70;;
11006;SDS011;8186;57.652;11.968;2023-04-03T04:25:45;1.07;;;0.60;;
11006;SDS011;8186;57.652;11.968;2023-04-03T04:28:12;1.17;;;0.70;;
11006;SDS011;8186;57.652;11.968;2023-04-03T04:30:39;2.37;;;0.60;;
11006;SDS011;8186;57.652;11.968;2023-04-03T04:33:06;5.53;;;0.80;;
11006;SDS011;8186;57.652;11.968;2023-04-03T04:35:35;2.70;;;1.37;;
11006;SDS011;8186;57.652;11.968;2023-04-03T04:38:02;1.53;;;0.90;;
11006;SDS011;8186;57.652;11.968;2023-04-03T04:40:29;1.50;;;0.70;;
11006;SDS011;8186;57.652;11.968;2023-04-03T04:42:58;1.00;;;0.70;;
11006;SDS011;8186;57.652;11.968;2023-04-03T04:45:26;2.53;;;0.60;;
11006;SDS011;8186;57.652;11.968;2023-04-03T04:47:54;1.83;;;0.83;;
11006;SDS011;8186;57.652;11.968;2023-04-03T04:50:21;2.70;;;0.90;;
11006;SDS011;8186;57.652;11.968;2023-04-03T04:52:48;2.43;;;1.10;;
11006;SDS011;8186;57.652;11.968;2023-04-03T04:55:15;3.37;;;1.03;;
11006;SDS011;8186;57.652;11.968;2023-04-03T04:57:42;3.03;;;1.07;;
11006;SDS011;8186;57.652;11.968;2023-04-03T05:00:13;1.07;;;0.87;;
11006;SDS011;8186;57.652;11.968;2023-04-03T05:02:41;2.40;;;1.20;;
11006;SDS011;8186;57.652;11.968;2023-04-03T05:05:08;3.27;;;2.00;;
11006;SDS011;8186;57.652;11.968;2023-04-03T05:07:35;3.27;;;1.40;;
11006;SDS011;8186;57.652;11.968;2023-04-03T05:10:02;2.93;;;1.60;;
11006;SDS011;8186;57.652;11.968;2023-04-03T05:12:30;2.80;;;1.70;;
11006;SDS011;8186;57.652;11.968;2023-04-03T05:14:58;1.50;;;1.40;;
11006;SDS011;8186;57.652;11.968;2023-04-03T05:17:26;2.93;;;1.80;;
11006;SDS011;8186;57.652;11.968;2023-04-03T05:19:53;1.30;;;1.03;;
11006;SDS011;8186;57.652;11.968;2023-04-03T05:22:21;3.23;;;1.13;;
11006;SDS011;8186;57.652;11.968;2023-04-03T05:24:48;2.00;;;1.13;;
11006;SDS011;8186;57.652;11.968;2023-04-03T05:27:15;4.93;;;1.10;;
11006;SDS011;8186;57.652;11.968;2023-04-03T05:29:42;15.07;;;1.70;;
11006;SDS011;8186;57.652;11.968;2023-04-03T05:32:09;5.60;;;1.37;;
11006;SDS011;8186;57.652;11.968;2023-04-03T05:34:37;8.23;;;1.37;;
11006;SDS011;8186;57.652;11.968;2023-04-03T05:37:04;9.73;;;1.40;;
11006;SDS011;8186;57.652;11.968;2023-04-03T05:39:31;14.57;;;1.57;;
11006;SDS011;8186;57.652;11.968;2023-04-03T05:41:58;8.57;;;1.20;;
11006;SDS011;8186;57.652;11.968;2023-04-03T05:44:25;4.83;;;1.10;;
11006;SDS011;8186;57.652;11.968;2023-04-03T05:46:52;4.43;;;0.80;;
11006;SDS011;8186;57.652;11.968;2023-04-03T05:49:19;3.30;;;0.90;;
11006;SDS011;8186;57.652;11.968;2023-04-03T05:51:48;5.40;;;1.77;;
11006;SDS011;8186;57.652;11.968;2023-04-03T05:54:16;4.80;;;0.80;;
11006;SDS011;8186;57.652;11.968;2023-04-03T05:56:44;11.83;;;1.70;;
11006;SDS011;8186;57.652;11.968;2023-04-03T05:59:11;2.33;;;1.23;;
11006;SDS011;8186;57.652;11.968;2023-04-03T06:01:38;5.17;;;1.47;;
11006;SDS011;8186;57.652;11.968;2023-04-03T06:04:05;5.17;;;1.30;;
11006;SDS011;8186;57.652;11.968;2023-04-03T06:06:48;11.50;;;1.40;;
11006;SDS011;8186;57.652;11.968;2023-04-03T06:09:16;5.80;;;1.53;;
11006;SDS011;8186;57.652;11.968;2023-04-03T06:11:44;7.47;;;2.70;;
11006;SDS011;8186;57.652;11.968;2023-04-03T06:14:11;4.23;;;1.87;;
11006;SDS011;8186;57.652;11.968;2023-04-03T06:16:38;12.50;;;1.87;;
11006;SDS011;8186;57.652;11.968;2023-04-03T06:19:05;5.27;;;1.97;;
11006;SDS011;8186;57.652;11.968;2023-04-03T06:21:32;11.53;;;2.33;;
11006;SDS011;8186;57.652;11.968;2023-04-03T06:24:02;12.03;;;2.50;;
11006;SDS011;8186;57.652;11.968;2023-04-03T06:26:29;10.97;;;2.80;;
11006;SDS011;8186;57.652;11.968;2023-04-03T06:28:56;13.90;;;2.80;;
11006;SDS011;8186;57.652;11.968;2023-04-03T06:31:23;7.53;;;1.87;;
11006;SDS011;8186;57.652;11.968;2023-04-03T06:33:50;16.50;;;2.37;;
11006;SDS011;8186;57.652;11.968;2023-04-03T06:36:18;22.07;;;2.37;;
11006;SDS011;8186;57.652;11.968;2023-04-03T06:38:46;5.80;;;2.40;;
11006;SDS011;8186;57.652;11.968;2023-04-03T06:41:15;10.57;;;2.30;;
11006;SDS011;8186;57.652;11.968;2023-04-03T06:43:42;7.20;;;1.83;;
11006;SDS011;8186;57.652;11.968;2023-04-03T06:46:12;6.13;;;1.70;;
11006;SDS011;8186;57.652;11.968;2023-04-03T06:48:40;21.70;;;1.83;;
11006;SDS011;8186;57.652;11.968;2023-04-03T06:51:17;2.50;;;1.23;;
11006;SDS011;8186;57.652;11.968;2023-04-03T06:53:45;5.50;;;1.20;;
11006;SDS011;8186;57.652;11.968;2023-04-03T06:56:12;3.60;;;1.20;;
11006;SDS011;8186;57.652;11.968;2023-04-03T06:58:41;6.13;;;1.00;;
11006;SDS011;8186;57.652;11.968;2023-04-03T07:01:08;12.33;;;1.40;;
11006;SDS011;8186;57.652;11.968;2023-04-03T07:03:36;5.83;;;1.23;;
11006;SDS011;8186;57.652;11.968;2023-04-03T07:06:03;5.90;;;1.30;;
11006;SDS011;8186;57.652;11.968;2023-04-03T07:08:31;7.83;;;1.53;;
11006;SDS011;8186;57.652;11.968;2023-04-03T07:10:58;4.93;;;1.37;;
11006;SDS011;8186;57.652;11.968;2023-04-03T07:13:26;5.90;;;1.50;;
11006;SDS011;8186;57.652;11.968;2023-04-03T07:15:54;3.37;;;1.70;;
11006;SDS011;8186;57.652;11.968;2023-04-03T07:18:21;4.03;;;1.47;;
11006;SDS011;8186;57.652;11.968;2023-04-03T07:20:48;6.67;;;1.47;;
11006;SDS011;8186;57.652;11.968;2023-04-03T07:23:15;3.57;;;1.47;;
11006;SDS011;8186;57.652;11.968;2023-04-03T07:25:43;4.67;;;1.23;;
11006;SDS011;8186;57.652;11.968;2023-04-03T07:28:11;4.07;;;1.40;;
11006;SDS011;8186;57.652;11.968;2023-04-03T07:30:45;6.27;;;1.73;;
11006;SDS011;8186;57.652;11.968;2023-04-03T07:33:14;2.83;;;0.87;;
11006;SDS011;8186;57.652;11.968;2023-04-03T07:35:42;4.13;;;1.20;;
11006;SDS011;8186;57.652;11.968;2023-04-03T07:38:09;2.43;;;0.90;;
11006;SDS011;8186;57.652;11.968;2023-04-03T07:40:37;5.60;;;1.53;;
11006;SDS011;8186;57.652;11.968;2023-04-03T07:43:04;4.20;;;0.90;;
11006;SDS011;8186;57.652;11.968;2023-04-03T07:45:34;2.00;;;1.20;;
11006;SDS011;8186;57.652;11.968;2023-04-03T07:48:02;3.43;;;1.40;;
11006;SDS011;8186;57.652;11.968;2023-04-03T07:50:30;10.40;;;1.57;;
11006;SDS011;8186;57.652;11.968;2023-04-03T07:52:57;3.70;;;1.23;;
11006;SDS011;8186;57.652;11.968;2023-04-03T07:55:24;6.03;;;0.97;;
11006;SDS011;8186;57.652;11.968;2023-04-03T07:57:51;2.73;;;1.60;;
11006;SDS011;8186;57.652;11.968;2023-04-03T08:00:18;2.20;;;1.03;;
11006;SDS011;8186;57.652;11.968;2023-04-03T08:02:45;7.17;;;1.50;;
11006;SDS011;8186;57.652;11.968;2023-04-03T08:05:17;2.53;;;1.00;;
11006;SDS011;8186;57.652;11.968;2023-04-03T08:07:44;8.23;;;1.40;;
11006;SDS011;8186;57.652;11.968;2023-04-03T08:10:11;3.40;;;1.27;;
11006;SDS011;8186;57.652;11.968;2023-04-03T08:12:38;3.87;;;1.13;;
11006;SDS011;8186;57.652;11.968;2023-04-03T08:15:06;2.53;;;0.90;;
11006;SDS011;8186;57.652;11.968;2023-04-03T08:17:34;2.63;;;1.13;;
11006;SDS011;8186;57.652;11.968;2023-04-03T08:20:01;2.97;;;0.93;;
11006;SDS011;8186;57.652;11.968;2023-04-03T08:22:31;2.10;;;0.97;;
11006;SDS011;8186;57.652;11.968;2023-04-03T08:24:57;2.20;;;0.70;;
11006;SDS011;8186;57.652;11.968;2023-04-03T08:27:25;3.43;;;1.03;;
11006;SDS011;8186;57.652;11.968;2023-04-03T08:29:52;2.87;;;1.30;;
11006;SDS011;8186;57.652;11.968;2023-04-03T08:32:19;2.67;;;1.00;;
11006;SDS011;8186;57.652;11.968;2023-04-03T08:34:46;2.20;;;0.60;;
11006;SDS011;8186;57.652;11.968;2023-04-03T08:37:13;0.97;;;0.80;;
11006;SDS011;8186;57.652;11.968;2023-04-03T08:39:42;2.57;;;0.57;;
11006;SDS011;8186;57.652;11.968;2023-04-03T08:42:12;1.83;;;1.00;;
11006;SDS011;8186;57.652;11.968;2023-04-03T08:44:45;2.77;;;0.60;;
11006;SDS011;8186;57.652;11.968;2023-04-03T08:47:18;2.33;;;0.73;;
11006;SDS011;8186;57.652;11.968;2023-04-03T08:49:51;0.70;;;0.57;;
11006;SDS011;8186;57.652;11.968;2023-04-03T08:52:20;2.70;;;0.93;;
11006;SDS011;8186;57.652;11.968;2023-04-03T08:54:51;2.60;;;0.73;;
11006;SDS011;8186;57.652;11.968;2023-04-03T08:57:23;2.43;;;0.80;;
11006;SDS011;8186;57.652;11.968;2023-04-03T08:59:55;1.30;;;0.90;;
11006;SDS011;8186;57.652;11.968;2023-04-03T09:02:24;3.97;;;0.83;;
11006;SDS011;8186;57.652;11.968;2023-04-03T09:04:52;1.70;;;0.90;;
11006;SDS011;8186;57.652;11.968;2023-04-03T09:07:22;1.50;;;0.87;;
11006;SDS011;8186;57.652;11.968;2023-04-03T09:09:53;1.60;;;0.60;;
11006;SDS011;8186;57.652;11.968;2023-04-03T09:12:23;1.37;;;0.60;;
11006;SDS011;8186;57.652;11.968;2023-04-03T09:14:55;2.77;;;0.90;;
11006;SDS011;8186;57.652;11.968;2023-04-03T09:17:27;2.43;;;1.00;;
11006;SDS011;8186;57.652;11.968;2023-04-03T09:20:03;2.67;;;1.67;;
11006;SDS011;8186;57.652;11.968;2023-04-03T09:22:37;2.30;;;0.70;;
11006;SDS011;8186;57.652;11.968;2023-04-03T09:25:08;4.57;;;1.40;;
11006;SDS011;8186;57.652;11.968;2023-04-03T09:27:38;1.43;;;0.80;;
11006;SDS011;8186;57.652;11.968;2023-04-03T09:30:06;1.73;;;0.73;;
11006;SDS011;8186;57.652;11.968;2023-04-03T09:32:38;2.90;;;0.80;;
11006;SDS011;8186;57.652;11.968;2023-04-03T09:35:06;1.00;;;0.60;;
11006;SDS011;8186;57.652;11.968;2023-04-03T09:37:45;2.70;;;0.90;;
11006;SDS011;8186;57.652;11.968;2023-04-03T09:45:51;1.73;;;0.73;;
11006;SDS011;8186;57.652;11.968;2023-04-03T09:48:20;0.97;;;0.60;;
11006;SDS011;8186;57.652;11.968;2023-04-03T09:53:37;1.97;;;0.70;;
11006;SDS011;8186;57.652;11.968;2023-04-03T09:56:18;2.00;;;0.57;;
11006;SDS011;8186;57.652;11.968;2023-04-03T09:58:47;1.80;;;0.87;;
11006;SDS011;8186;57.652;11.968;2023-04-03T10:01:26;1.70;;;0.70;;
11006;SDS011;8186;57.652;11.968;2023-04-03T10:04:02;2.10;;;0.70;;
11006;SDS011;8186;57.652;11.968;2023-04-03T10:06:35;1.23;;;0.70;;
11006;SDS011;8186;57.652;11.968;2023-04-03T10:09:10;3.60;;;0.80;;
11006;SDS011;8186;57.652;11.968;2023-04-03T10:11:51;2.50;;;0.70;;
11006;SDS011;8186;57.652;11.968;2023-04-03T10:14:25;1.67;;;1.03;;
11006;SDS011;8186;57.652;11.968;2023-04-03T10:16:53;3.07;;;0.83;;
11006;SDS011;8186;57.652;11.968;2023-04-03T10:22:21;3.13;;;0.80;;
11006;SDS011;8186;57.652;11.968;2023-04-03T10:24:52;2.63;;;0.97;;
11006;SDS011;8186;57.652;11.968;2023-04-03T10:27:29;3.60;;;0.80;;
11006;SDS011;8186;57.652;11.968;2023-04-03T10:30:04;2.37;;;0.77;;
11006;SDS011;8186;57.652;11.968;2023-04-03T10:32:43;2.70;;;0.70;;
11006;SDS011;8186;57.652;11.968;2023-04-03T10:35:16;2.10;;;1.07;;
11006;SDS011;8186;57.652;11.968;2023-04-03T10:37:52;5.80;;;1.47;;
11006;SDS011;8186;57.652;11.968;2023-04-03T10:40:29;4.20;;;0.90;;
11006;SDS011;8186;57.652;11.968;2023-04-03T10:43:01;2.43;;;1.00;;
11006;SDS011;8186;57.652;11.968;2023-04-03T10:45:31;5.30;;;0.80;;
11006;SDS011;8186;57.652;11.968;2023-04-03T10:48:09;2.93;;;0.60;;
11006;SDS011;8186;57.652;11.968;2023-04-03T10:50:42;2.67;;;0.90;;
11006;SDS011;8186;57.652;11.968;2023-04-03T10:53:13;2.07;;;0.60;;
11006;SDS011;8186;57.652;11.968;2023-04-03T10:55:46;0.90;;;0.87;;
11006;SDS011;8186;57.652;11.968;2023-04-03T10:58:20;1.90;;;0.87;;
11006;SDS011;8186;57.652;11.968;2023-04-03T11:00:51;3.43;;;1.00;;
11006;SDS011;8186;57.652;11.968;2023-04-03T11:03:23;1.07;;;0.80;;
11006;SDS011;8186;57.652;11.968;2023-04-03T11:05:56;1.33;;;0.90;;
11006;SDS011;8186;57.652;11.968;2023-04-03T11:08:26;2.47;;;0.80;;
11006;SDS011;8186;57.652;11.968;2023-04-03T11:10:57;1.97;;;1.00;;
11006;SDS011;8186;57.652;11.968;2023-04-03T11:13:28;2.33;;;0.80;;
11006;SDS011;8186;57.652;11.968;2023-04-03T11:15:59;2.40;;;0.70;;
11006;SDS011;8186;57.652;11.968;2023-04-03T11:18:27;3.33;;;1.20;;
11006;SDS011;8186;57.652;11.968;2023-04-03T11:20:57;3.13;;;1.00;;
11006;SDS011;8186;57.652;11.968;2023-04-03T11:23:26;6.27;;;1.57;;
11006;SDS011;8186;57.652;11.968;2023-04-03T11:25:56;3.27;;;1.10;;
11006;SDS011;8186;57.652;11.968;2023-04-03T11:28:26;4.83;;;1.40;;
11006;SDS011;8186;57.652;11.968;2023-04-03T11:30:56;5.97;;;1.70;;
11006;SDS011;8186;57.652;11.968;2023-04-03T11:33:30;4.20;;;1.30;;
11006;SDS011;8186;57.652;11.968;2023-04-03T11:36:00;5.70;;;1.40;;
11006;SDS011;8186;57.652;11.968;2023-04-03T11:38:30;2.37;;;1.10;;
11006;SDS011;8186;57.652;11.968;2023-04-03T11:41:01;2.33;;;1.10;;
11006;SDS011;8186;57.652;11.968;2023-04-03T11:43:32;1.23;;;1.00;;
11006;SDS011;8186;57.652;11.968;2023-04-03T11:46:00;4.87;;;1.30;;
11006;SDS011;8186;57.652;11.968;2023-04-03T11:48:44;4.23;;;0.90;;
11006;SDS011;8186;57.652;11.968;2023-04-03T12:12:29;2.73;;;0.60;;
11006;SDS011;8186;57.652;11.968;2023-04-03T12:15:11;2.97;;;1.03;;
11006;SDS011;8186;57.652;11.968;2023-04-03T12:17:43;3.30;;;0.80;;
11006;SDS011;8186;57.652;11.968;2023-04-03T12:23:23;3.77;;;0.80;;
11006;SDS011;8186;57.652;11.968;2023-04-03T12:25:51;3.17;;;1.17;;
11006;SDS011;8186;57.652;11.968;2023-04-03T12:28:30;2.93;;;1.00;;
11006;SDS011;8186;57.652;11.968;2023-04-03T12:31:02;7.13;;;1.00;;
11006;SDS011;8186;57.652;11.968;2023-04-03T12:33:36;4.20;;;0.80;;
11006;SDS011;8186;57.652;11.968;2023-04-03T12:36:11;2.53;;;1.03;;
11006;SDS011;8186;57.652;11.968;2023-04-03T12:38:49;1.47;;;0.70;;
11006;SDS011;8186;57.652;11.968;2023-04-03T12:41:31;3.77;;;0.90;;
11006;SDS011;8186;57.652;11.968;2023-04-03T12:47:08;2.30;;;0.80;;
11006;SDS011;8186;57.652;11.968;2023-04-03T12:49:50;2.70;;;0.80;;
11006;SDS011;8186;57.652;11.968;2023-04-03T12:52:21;2.73;;;1.03;;
11006;SDS011;8186;57.652;11.968;2023-04-03T12:54:59;2.37;;;0.90;;
11006;SDS011;8186;57.652;11.968;2023-04-03T12:57:29;1.23;;;0.70;;
11006;SDS011;8186;57.652;11.968;2023-04-03T12:59:57;1.33;;;0.80;;
11006;SDS011;8186;57.652;11.968;2023-04-03T13:02:26;3.67;;;1.00;;
11006;SDS011;8186;57.652;11.968;2023-04-03T13:04:54;3.10;;;0.90;;
11006;SDS011;8186;57.652;11.968;2023-04-03T13:07:25;4.07;;;1.00;;
11006;SDS011;8186;57.652;11.968;2023-04-03T13:10:01;6.80;;;1.33;;
11006;SDS011;8186;57.652;11.968;2023-04-03T13:12:30;5.83;;;0.93;;
11006;SDS011;8186;57.652;11.968;2023-04-03T13:14:58;6.90;;;1.00;;
11006;SDS011;8186;57.652;11.968;2023-04-03T13:17:29;3.80;;;0.87;;
11006;SDS011;8186;57.652;11.968;2023-04-03T13:20:11;3.93;;;0.90;;
11006;SDS011;8186;57.652;11.968;2023-04-03T13:22:47;1.07;;;0.63;;
11006;SDS011;8186;57.652;11.968;2023-04-03T13:25:16;2.17;;;1.00;;
11006;SDS011;8186;57.652;11.968;2023-04-03T13:27:44;2.23;;;0.77;;
11006;SDS011;8186;57.652;11.968;2023-04-03T13:32:59;1.20;;;0.80;;
11006;SDS011;8186;57.652;11.968;2023-04-03T13:35:34;1.83;;;0.83;;
11006;SDS011;8186;57.652;11.968;2023-04-03T13:38:06;3.93;;;1.00;;
11006;SDS011;8186;57.652;11.968;2023-04-03T13:40:47;3.77;;;0.67;;
11006;SDS011;8186;57.652;11.968;2023-04-03T13:43:19;2.33;;;1.17;;
11006;SDS011;8186;57.652;11.968;2023-04-03T13:45:54;5.03;;;1.10;;
11006;SDS011;8186;57.652;11.968;2023-04-03T13:48:23;1.30;;;0.80;;
11006;SDS011;8186;57.652;11.968;2023-04-03T13:50:54;3.33;;;1.03;;
11006;SDS011;8186;57.652;11.968;2023-04-03T13:53:25;1.50;;;0.80;;
11006;SDS011;8186;57.652;11.968;2023-04-03T13:55:55;1.70;;;0.83;;
11006;SDS011;8186;57.652;11.968;2023-04-03T13:58:31;7.30;;;1.10;;
11006;SDS011;8186;57.652;11.968;2023-04-03T14:01:00;1.67;;;0.70;;
11006;SDS011;8186;57.652;11.968;2023-04-03T14:03:37;2.30;;;0.77;;
11006;SDS011;8186;57.652;11.968;2023-04-03T14:06:08;3.40;;;1.00;;
11006;SDS011;8186;57.652;11.968;2023-04-03T14:08:38;4.00;;;1.30;;
11006;SDS011;8186;57.652;11.968;2023-04-03T14:11:08;4.33;;;1.20;;
11006;SDS011;8186;57.652;11.968;2023-04-03T14:13:36;3.90;;;0.90;;
11006;SDS011;8186;57.652;11.968;2023-04-03T14:16:03;7.17;;;1.07;;
11006;SDS011;8186;57.652;11.968;2023-04-03T14:18:31;6.87;;;0.93;;
11006;SDS011;8186;57.652;11.968;2023-04-03T14:20:57;4.50;;;1.00;;
11006;SDS011;8186;57.652;11.968;2023-04-03T14:23:24;1.70;;;0.90;;
11006;SDS011;8186;57.652;11.968;2023-04-03T14:25:53;6.13;;;1.10;;
11006;SDS011;8186;57.652;11.968;2023-04-03T14:28:21;4.50;;;0.77;;
11006;SDS011;8186;57.652;11.968;2023-04-03T14:30:49;3.43;;;0.60;;
11006;SDS011;8186;57.652;11.968;2023-04-03T14:33:19;2.03;;;0.80;;
11006;SDS011;8186;57.652;11.968;2023-04-03T14:35:47;2.87;;;1.00;;
11006;SDS011;8186;57.652;11.968;2023-04-03T14:38:20;3.20;;;0.90;;
11006;SDS011;8186;57.652;11.968;2023-04-03T14:40:48;2.80;;;0.70;;
11006;SDS011;8186;57.652;11.968;2023-04-03T14:43:17;6.20;;;1.33;;
11006;SDS011;8186;57.652;11.968;2023-04-03T14:45:45;5.17;;;2.10;;
11006;SDS011;8186;57.652;11.968;2023-04-03T14:48:15;3.50;;;1.90;;
11006;SDS011;8186;57.652;11.968;2023-04-03T14:50:45;1.90;;;1.40;;
11006;SDS011;8186;57.652;11.968;2023-04-03T14:53:13;5.50;;;1.77;;
11006;SDS011;8186;57.652;11.968;2023-04-03T14:55:42;3.27;;;1.80;;
11006;SDS011;8186;57.652;11.968;2023-04-03T14:58:11;6.23;;;1.80;;
11006;SDS011;8186;57.652;11.968;2023-04-03T15:00:41;1.80;;;1.20;;
11006;SDS011;8186;57.652;11.968;2023-04-03T15:03:11;1.77;;;0.90;;
11006;SDS011;8186;57.652;11.968;2023-04-03T15:05:40;1.27;;;1.00;;
11006;SDS011;8186;57.652;11.968;2023-04-03T15:08:08;4.73;;;1.37;;
11006;SDS011;8186;57.652;11.968;2023-04-03T15:10:45;9.17;;;0.90;;
11006;SDS011;8186;57.652;11.968;2023-04-03T15:13:12;3.73;;;1.00;;
11006;SDS011;8186;57.652;11.968;2023-04-03T15:15:41;5.63;;;1.00;;
11006;SDS011;8186;57.652;11.968;2023-04-03T15:18:10;1.07;;;0.60;;
11006;SDS011;8186;57.652;11.968;2023-04-03T15:20:41;2.93;;;1.07;;
11006;SDS011;8186;57.652;11.968;2023-04-03T15:23:09;8.73;;;1.20;;
11006;SDS011;8186;57.652;11.968;2023-04-03T15:25:37;4.23;;;1.33;;
11006;SDS011;8186;57.652;11.968;2023-04-03T15:28:04;4.07;;;1.00;;
11006;SDS011;8186;57.652;11.968;2023-04-03T15:30:31;3.50;;;1.57;;
11006;SDS011;8186;57.652;11.968;2023-04-03T15:33:00;6.03;;;0.90;;
11006;SDS011;8186;57.652;11.968;2023-04-03T15:35:27;2.53;;;0.80;;
11006;SDS011;8186;57.652;11.968;2023-04-03T15:37:54;3.80;;;1.07;;
11006;SDS011;8186;57.652;11.968;2023-04-03T15:40:21;3.57;;;1.20;;
11006;SDS011;8186;57.652;11.968;2023-04-03T15:42:48;5.77;;;1.00;;